Houwa Maru — JL6394 — position and weather

sailwx.info

Track history (hours):
 
Tides and Currents Weather Stations Pressure Air Temp Water Temp Dewpoint Dewpoint Depression Visibility Wind Speed Wind Dir Waves Ship Positions

Houwa Maru

Last reported at 2014-Jul-30 00:33 UTC. Time now 2014-Jul-30 17:18 UTC.
Position N 35°01' E 139°44'.

Length 76 m.

Type: Ship. MMSI: 431500378.

Date/timePositionNaut miles runAvg speedWind from/ knotsBaromVisibWave heightAir tempDewpointWater temp
2014-Jul-30 00:33N 35°01' E 139°44'1111.3
2014-Jul-29 23:33N 35°13' E 139°46'6 6.3
2014-Jul-29 22:32N 35°17' E 139°41'0 0.0
2014-Jul-29 21:32N 35°17' E 139°41'0 0.0
2014-Jul-29 20:32N 35°17' E 139°41'0 0.0
2014-Jul-29 19:32N 35°17' E 139°41'0 0.0
2014-Jul-29 18:32N 35°17' E 139°41'0 0.0
2014-Jul-29 17:32N 35°17' E 139°41'0 0.0
2014-Jul-29 16:14N 35°17' E 139°41'0 0.0
2014-Jul-29 15:32N 35°17' E 139°41'0 0.0
2014-Jul-29 14:32N 35°17' E 139°41'0 0.0
2014-Jul-29 13:26N 35°17' E 139°41'0 0.0
2014-Jul-29 12:32N 35°17' E 139°41'0 0.0
2014-Jul-29 11:32N 35°17' E 139°41'0 0.0
2014-Jul-29 10:32N 35°17' E 139°41'0 0.0
2014-Jul-29 09:26N 35°17' E 139°41'0 0.0
2014-Jul-29 08:32N 35°17' E 139°41'0 0.0
2014-Jul-29 07:32N 35°17' E 139°41'0 0.0
2014-Jul-29 06:20N 35°17' E 139°41'0 0.0
2014-Jul-29 05:26N 35°17' E 139°41'0 0.0
2014-Jul-29 04:26N 35°17' E 139°41'0 0.0
2014-Jul-29 03:32N 35°17' E 139°41'0 0.0
2014-Jul-29 02:18N 35°17' E 139°41'2 2.2
2014-Jul-29 01:13N 35°19' E 139°40'0 0.0
2014-Jul-29 00:25N 35°19' E 139°40'0 0.0
2014-Jul-28 23:16N 35°19' E 139°40'0 0.0
2014-Jul-28 22:19N 35°19' E 139°40'0 0.0
2014-Jul-28 21:19N 35°19' E 139°40'0 0.5
2014-Jul-28 20:31N 35°19' E 139°40'0 0.0
2014-Jul-28 14:32N 35°19' E 139°40'0 0.0
2014-Jul-28 11:32N 35°19' E 139°40'0 0.1
2014-Jul-28 10:26N 35°19' E 139°40'0 0.1
2014-Jul-28 09:20N 35°19' E 139°40'0 0.0
2014-Jul-28 07:23N 35°19' E 139°40'0 0.0
2014-Jul-28 06:14N 35°19' E 139°40'0 0.0
2014-Jul-28 01:12N 35°19' E 139°40'710.8
2014-Jul-28 00:33N 35°25' E 139°44'1211.9
2014-Jul-27 23:33N 35°33' E 139°55'8 7.9
2014-Jul-27 22:31N 35°41' E 139°59'0 0.0
2014-Jul-27 21:31N 35°41' E 139°59'0 0.0
2014-Jul-27 20:31N 35°41' E 139°59'0 0.0
2014-Jul-27 19:31N 35°41' E 139°59'0 0.0
2014-Jul-27 18:31N 35°41' E 139°59'0 0.0
2014-Jul-27 17:31N 35°41' E 139°59'0 0.0
2014-Jul-27 16:25N 35°41' E 139°59'0 0.0
2014-Jul-27 15:31N 35°41' E 139°59'0 0.0
2014-Jul-27 14:31N 35°41' E 139°59'0 0.0
2014-Jul-27 13:31N 35°41' E 139°59'0 0.0
2014-Jul-27 12:31N 35°41' E 139°59'0 0.0
2014-Jul-27 11:31N 35°41' E 139°59'0 0.0
2014-Jul-27 10:31N 35°41' E 139°59'0 0.0
2014-Jul-27 09:31N 35°41' E 139°59'0 0.0
2014-Jul-27 08:31N 35°41' E 139°59'0 0.0
2014-Jul-27 07:31N 35°41' E 139°59'0 0.0
2014-Jul-27 06:31N 35°41' E 139°59'0 0.0
2014-Jul-27 05:28N 35°41' E 139°59'0 0.0
2014-Jul-27 04:28N 35°41' E 139°59'0 0.0
2014-Jul-27 03:31N 35°41' E 139°59'0 0.0
2014-Jul-27 02:31N 35°41' E 139°59'0 0.0
2014-Jul-27 01:31N 35°41' E 139°59'0 0.0
2014-Jul-27 00:31N 35°41' E 139°59'0 0.5
2014-Jul-26 23:33N 35°40' E 139°59'0 0.5
2014-Jul-26 22:33N 35°41' E 139°58'0 0.0
2014-Jul-26 21:33N 35°41' E 139°58'0 0.0
2014-Jul-26 20:30N 35°41' E 139°58'0 0.0
2014-Jul-26 19:33N 35°41' E 139°58'0 0.0
2014-Jul-26 18:33N 35°41' E 139°58'0 0.0
2014-Jul-26 17:33N 35°41' E 139°58'0 0.0
2014-Jul-26 16:33N 35°41' E 139°58'0 0.0
2014-Jul-26 15:33N 35°41' E 139°58'0 0.0
2014-Jul-26 14:33N 35°41' E 139°58'0 0.0
2014-Jul-26 13:27N 35°41' E 139°58'0 0.0
2014-Jul-26 12:33N 35°41' E 139°58'0 0.0
2014-Jul-26 11:33N 35°41' E 139°58'0 0.0
2014-Jul-26 10:33N 35°41' E 139°58'0 0.0
2014-Jul-26 09:30N 35°41' E 139°58'0 0.0
2014-Jul-26 08:30N 35°41' E 139°58'0 0.0
2014-Jul-26 07:27N 35°41' E 139°58'0 0.0
2014-Jul-26 06:33N 35°41' E 139°58'0 0.0
2014-Jul-26 05:32N 35°41' E 139°58'0 0.0
2014-Jul-26 04:32N 35°41' E 139°58'0 0.0
2014-Jul-26 03:26N 35°41' E 139°58'0 0.0
2014-Jul-26 02:32N 35°41' E 139°58'0 0.0
2014-Jul-26 01:32N 35°41' E 139°58'0 0.0
2014-Jul-26 00:29N 35°41' E 139°58'0 0.0
2014-Jul-25 23:32N 35°41' E 139°58'0 0.0
2014-Jul-25 22:32N 35°41' E 139°58'1 1.4
2014-Jul-25 21:33N 35°39' E 139°59'4 4.4
2014-Jul-25 20:33N 35°35' E 139°57'8 8.3
2014-Jul-25 19:33N 35°28' E 139°52'10 9.6
2014-Jul-25 18:31N 35°20' E 139°45'10 9.5
2014-Jul-25 17:30N 35°11' E 139°46'9 9.0
2014-Jul-25 16:33N 35°04' E 139°40'  
Track history (hours):
 
Tides and Currents Weather Stations Pressure Air Temp Water Temp Dewpoint Dewpoint Depression Visibility Wind Speed Wind Dir Waves Ship Positions

Houwa Maru

Last reported at 2014-Jul-30 00:33 UTC. Time now 2014-Jul-30 17:18 UTC.
Position N 35°01' E 139°44'.

Length 76 m.

Type: Ship. MMSI: 431500378.

Date/timePositionNaut miles runAvg speedWind from/ knotsBaromVisibWave heightAir tempDewpointWater temp
2014-Jul-30 00:33N 35°01' E 139°44'1111.3
2014-Jul-29 23:33N 35°13' E 139°46'6 6.3
2014-Jul-29 22:32N 35°17' E 139°41'0 0.0
2014-Jul-29 21:32N 35°17' E 139°41'0 0.0
2014-Jul-29 20:32N 35°17' E 139°41'0 0.0
2014-Jul-29 19:32N 35°17' E 139°41'0 0.0
2014-Jul-29 18:32N 35°17' E 139°41'0 0.0
2014-Jul-29 17:32N 35°17' E 139°41'0 0.0
2014-Jul-29 16:14N 35°17' E 139°41'0 0.0
2014-Jul-29 15:32N 35°17' E 139°41'0 0.0
2014-Jul-29 14:32N 35°17' E 139°41'0 0.0
2014-Jul-29 13:26N 35°17' E 139°41'0 0.0
2014-Jul-29 12:32N 35°17' E 139°41'0 0.0
2014-Jul-29 11:32N 35°17' E 139°41'0 0.0
2014-Jul-29 10:32N 35°17' E 139°41'0 0.0
2014-Jul-29 09:26N 35°17' E 139°41'0 0.0
2014-Jul-29 08:32N 35°17' E 139°41'0 0.0
2014-Jul-29 07:32N 35°17' E 139°41'0 0.0
2014-Jul-29 06:20N 35°17' E 139°41'0 0.0
2014-Jul-29 05:26N 35°17' E 139°41'0 0.0
2014-Jul-29 04:26N 35°17' E 139°41'0 0.0
2014-Jul-29 03:32N 35°17' E 139°41'0 0.0
2014-Jul-29 02:18N 35°17' E 139°41'2 2.2
2014-Jul-29 01:13N 35°19' E 139°40'0 0.0
2014-Jul-29 00:25N 35°19' E 139°40'0 0.0
2014-Jul-28 23:16N 35°19' E 139°40'0 0.0
2014-Jul-28 22:19N 35°19' E 139°40'0 0.0
2014-Jul-28 21:19N 35°19' E 139°40'0 0.5
2014-Jul-28 20:31N 35°19' E 139°40'0 0.0
2014-Jul-28 14:32N 35°19' E 139°40'0 0.0
2014-Jul-28 11:32N 35°19' E 139°40'0 0.1
2014-Jul-28 10:26N 35°19' E 139°40'0 0.1
2014-Jul-28 09:20N 35°19' E 139°40'0 0.0
2014-Jul-28 07:23N 35°19' E 139°40'0 0.0
2014-Jul-28 06:14N 35°19' E 139°40'0 0.0
2014-Jul-28 01:12N 35°19' E 139°40'710.8
2014-Jul-28 00:33N 35°25' E 139°44'1211.9
2014-Jul-27 23:33N 35°33' E 139°55'8 7.9
2014-Jul-27 22:31N 35°41' E 139°59'0 0.0
2014-Jul-27 21:31N 35°41' E 139°59'0 0.0
2014-Jul-27 20:31N 35°41' E 139°59'0 0.0
2014-Jul-27 19:31N 35°41' E 139°59'0 0.0
2014-Jul-27 18:31N 35°41' E 139°59'0 0.0
2014-Jul-27 17:31N 35°41' E 139°59'0 0.0
2014-Jul-27 16:25N 35°41' E 139°59'0 0.0
2014-Jul-27 15:31N 35°41' E 139°59'0 0.0
2014-Jul-27 14:31N 35°41' E 139°59'0 0.0
2014-Jul-27 13:31N 35°41' E 139°59'0 0.0
2014-Jul-27 12:31N 35°41' E 139°59'0 0.0
2014-Jul-27 11:31N 35°41' E 139°59'0 0.0
2014-Jul-27 10:31N 35°41' E 139°59'0 0.0
2014-Jul-27 09:31N 35°41' E 139°59'0 0.0
2014-Jul-27 08:31N 35°41' E 139°59'0 0.0
2014-Jul-27 07:31N 35°41' E 139°59'0 0.0
2014-Jul-27 06:31N 35°41' E 139°59'0 0.0
2014-Jul-27 05:28N 35°41' E 139°59'0 0.0
2014-Jul-27 04:28N 35°41' E 139°59'0 0.0
2014-Jul-27 03:31N 35°41' E 139°59'0 0.0
2014-Jul-27 02:31N 35°41' E 139°59'0 0.0
2014-Jul-27 01:31N 35°41' E 139°59'0 0.0
2014-Jul-27 00:31N 35°41' E 139°59'0 0.5
2014-Jul-26 23:33N 35°40' E 139°59'0 0.5
2014-Jul-26 22:33N 35°41' E 139°58'0 0.0
2014-Jul-26 21:33N 35°41' E 139°58'0 0.0
2014-Jul-26 20:30N 35°41' E 139°58'0 0.0
2014-Jul-26 19:33N 35°41' E 139°58'0 0.0
2014-Jul-26 18:33N 35°41' E 139°58'0 0.0
2014-Jul-26 17:33N 35°41' E 139°58'0 0.0
2014-Jul-26 16:33N 35°41' E 139°58'0 0.0
2014-Jul-26 15:33N 35°41' E 139°58'0 0.0
2014-Jul-26 14:33N 35°41' E 139°58'0 0.0
2014-Jul-26 13:27N 35°41' E 139°58'0 0.0
2014-Jul-26 12:33N 35°41' E 139°58'0 0.0
2014-Jul-26 11:33N 35°41' E 139°58'0 0.0
2014-Jul-26 10:33N 35°41' E 139°58'0 0.0
2014-Jul-26 09:30N 35°41' E 139°58'0 0.0
2014-Jul-26 08:30N 35°41' E 139°58'0 0.0
2014-Jul-26 07:27N 35°41' E 139°58'0 0.0
2014-Jul-26 06:33N 35°41' E 139°58'0 0.0
2014-Jul-26 05:32N 35°41' E 139°58'0 0.0
2014-Jul-26 04:32N 35°41' E 139°58'0 0.0
2014-Jul-26 03:26N 35°41' E 139°58'0 0.0
2014-Jul-26 02:32N 35°41' E 139°58'0 0.0
2014-Jul-26 01:32N 35°41' E 139°58'0 0.0
2014-Jul-26 00:29N 35°41' E 139°58'0 0.0
2014-Jul-25 23:32N 35°41' E 139°58'0 0.0
2014-Jul-25 22:32N 35°41' E 139°58'1 1.4
2014-Jul-25 21:33N 35°39' E 139°59'4 4.4
2014-Jul-25 20:33N 35°35' E 139°57'8 8.3
2014-Jul-25 19:33N 35°28' E 139°52'10 9.6
2014-Jul-25 18:31N 35°20' E 139°45'10 9.5
2014-Jul-25 17:30N 35°11' E 139°46'9 9.0
2014-Jul-25 16:33N 35°04' E 139°40'  

Dump ship's entire track history